sensor_id;sensor_type;location;lat;lon;timestamp;temperature;humidity
15596;DHT22;7898;48.658;9.068;2022-07-18T00:00:46;15.50;99.90
15596;DHT22;7898;48.658;9.068;2022-07-18T00:03:13;15.50;99.90
15596;DHT22;7898;48.658;9.068;2022-07-18T00:05:40;15.30;99.90
15596;DHT22;7898;48.658;9.068;2022-07-18T00:08:07;15.20;99.90
15596;DHT22;7898;48.658;9.068;2022-07-18T00:10:34;15.10;99.90
15596;DHT22;7898;48.658;9.068;2022-07-18T00:13:02;15.00;99.90
15596;DHT22;7898;48.658;9.068;2022-07-18T00:15:29;14.90;99.90
15596;DHT22;7898;48.658;9.068;2022-07-18T00:17:56;14.90;99.90
15596;DHT22;7898;48.658;9.068;2022-07-18T00:20:23;14.80;99.90
15596;DHT22;7898;48.658;9.068;2022-07-18T00:22:50;14.80;99.90
15596;DHT22;7898;48.658;9.068;2022-07-18T00:25:18;14.80;99.90
15596;DHT22;7898;48.658;9.068;2022-07-18T00:27:45;14.80;99.90
15596;DHT22;7898;48.658;9.068;2022-07-18T00:30:14;14.80;99.90
15596;DHT22;7898;48.658;9.068;2022-07-18T00:32:40;14.80;99.90
15596;DHT22;7898;48.658;9.068;2022-07-18T00:35:09;14.70;99.90
15596;DHT22;7898;48.658;9.068;2022-07-18T00:37:36;14.70;99.90
15596;DHT22;7898;48.658;9.068;2022-07-18T00:40:04;14.70;99.90
15596;DHT22;7898;48.658;9.068;2022-07-18T00:42:31;14.70;99.90
15596;DHT22;7898;48.658;9.068;2022-07-18T00:44:58;14.60;99.90
15596;DHT22;7898;48.658;9.068;2022-07-18T00:47:26;14.70;99.90
15596;DHT22;7898;48.658;9.068;2022-07-18T00:49:53;14.70;99.90
15596;DHT22;7898;48.658;9.068;2022-07-18T00:52:20;14.60;99.90
15596;DHT22;7898;48.658;9.068;2022-07-18T00:54:50;14.50;99.90
15596;DHT22;7898;48.658;9.068;2022-07-18T00:57:17;14.50;99.90
15596;DHT22;7898;48.658;9.068;2022-07-18T00:59:44;14.50;99.90
15596;DHT22;7898;48.658;9.068;2022-07-18T01:02:30;14.40;99.90
15596;DHT22;7898;48.658;9.068;2022-07-18T01:04:57;14.30;99.90
15596;DHT22;7898;48.658;9.068;2022-07-18T01:07:24;14.30;99.90
15596;DHT22;7898;48.658;9.068;2022-07-18T01:09:53;14.20;99.90
15596;DHT22;7898;48.658;9.068;2022-07-18T01:12:20;14.20;99.90
15596;DHT22;7898;48.658;9.068;2022-07-18T01:14:47;14.10;99.90
15596;DHT22;7898;48.658;9.068;2022-07-18T01:17:15;14.10;99.90
15596;DHT22;7898;48.658;9.068;2022-07-18T01:19:46;14.10;99.90
15596;DHT22;7898;48.658;9.068;2022-07-18T01:22:17;14.10;99.90
15596;DHT22;7898;48.658;9.068;2022-07-18T01:24:45;14.10;99.90
15596;DHT22;7898;48.658;9.068;2022-07-18T01:27:13;14.10;99.90
15596;DHT22;7898;48.658;9.068;2022-07-18T01:29:41;14.10;99.90
15596;DHT22;7898;48.658;9.068;2022-07-18T01:32:08;14.00;99.90
15596;DHT22;7898;48.658;9.068;2022-07-18T01:34:37;14.50;99.90
15596;DHT22;7898;48.658;9.068;2022-07-18T01:37:05;14.00;99.90
15596;DHT22;7898;48.658;9.068;2022-07-18T01:39:34;13.80;99.90
15596;DHT22;7898;48.658;9.068;2022-07-18T01:42:02;13.70;99.90
15596;DHT22;7898;48.658;9.068;2022-07-18T01:44:30;13.60;99.90
15596;DHT22;7898;48.658;9.068;2022-07-18T01:46:57;13.50;99.90
15596;DHT22;7898;48.658;9.068;2022-07-18T01:49:25;13.40;99.90
15596;DHT22;7898;48.658;9.068;2022-07-18T01:51:53;13.30;99.90
15596;DHT22;7898;48.658;9.068;2022-07-18T01:54:21;13.30;99.90
15596;DHT22;7898;48.658;9.068;2022-07-18T01:56:49;13.20;99.90
15596;DHT22;7898;48.658;9.068;2022-07-18T01:59:16;13.20;99.90
15596;DHT22;7898;48.658;9.068;2022-07-18T02:01:43;13.20;99.90
15596;DHT22;7898;48.658;9.068;2022-07-18T02:04:11;13.20;99.90
15596;DHT22;7898;48.658;9.068;2022-07-18T02:06:38;13.20;99.90
15596;DHT22;7898;48.658;9.068;2022-07-18T02:09:06;13.20;99.90
15596;DHT22;7898;48.658;9.068;2022-07-18T02:11:33;13.20;99.90
15596;DHT22;7898;48.658;9.068;2022-07-18T02:14:03;13.20;99.90
15596;DHT22;7898;48.658;9.068;2022-07-18T02:16:30;13.20;99.90
15596;DHT22;7898;48.658;9.068;2022-07-18T02:18:57;13.10;99.90
15596;DHT22;7898;48.658;9.068;2022-07-18T02:21:24;13.10;99.90
15596;DHT22;7898;48.658;9.068;2022-07-18T02:23:51;13.10;99.90
15596;DHT22;7898;48.658;9.068;2022-07-18T02:26:19;13.00;99.90
15596;DHT22;7898;48.658;9.068;2022-07-18T02:28:46;13.00;99.90
15596;DHT22;7898;48.658;9.068;2022-07-18T02:31:15;13.00;99.90
15596;DHT22;7898;48.658;9.068;2022-07-18T02:33:41;13.00;99.90
15596;DHT22;7898;48.658;9.068;2022-07-18T02:36:08;13.00;99.90
15596;DHT22;7898;48.658;9.068;2022-07-18T02:38:35;13.00;99.90
15596;DHT22;7898;48.658;9.068;2022-07-18T02:41:06;13.00;99.90
15596;DHT22;7898;48.658;9.068;2022-07-18T02:43:35;13.00;99.90
15596;DHT22;7898;48.658;9.068;2022-07-18T02:46:02;13.00;99.90
15596;DHT22;7898;48.658;9.068;2022-07-18T02:48:31;13.00;99.90
15596;DHT22;7898;48.658;9.068;2022-07-18T02:50:57;12.90;99.90
15596;DHT22;7898;48.658;9.068;2022-07-18T02:53:24;12.90;99.90
15596;DHT22;7898;48.658;9.068;2022-07-18T02:55:53;12.90;99.90
15596;DHT22;7898;48.658;9.068;2022-07-18T02:58:20;12.80;99.90
15596;DHT22;7898;48.658;9.068;2022-07-18T03:00:47;12.90;99.90
15596;DHT22;7898;48.658;9.068;2022-07-18T03:03:14;12.80;99.90
15596;DHT22;7898;48.658;9.068;2022-07-18T03:05:42;12.80;99.90
15596;DHT22;7898;48.658;9.068;2022-07-18T03:08:09;12.80;99.90
15596;DHT22;7898;48.658;9.068;2022-07-18T03:10:36;12.80;99.90
15596;DHT22;7898;48.658;9.068;2022-07-18T03:13:03;12.60;99.90
15596;DHT22;7898;48.658;9.068;2022-07-18T03:15:31;12.60;99.90
15596;DHT22;7898;48.658;9.068;2022-07-18T03:18:00;12.50;99.90
15596;DHT22;7898;48.658;9.068;2022-07-18T03:20:27;12.50;99.90
15596;DHT22;7898;48.658;9.068;2022-07-18T03:22:56;12.50;99.90
15596;DHT22;7898;48.658;9.068;2022-07-18T03:25:23;12.40;99.90
15596;DHT22;7898;48.658;9.068;2022-07-18T03:27:52;12.40;99.90
15596;DHT22;7898;48.658;9.068;2022-07-18T03:30:18;12.40;99.90
15596;DHT22;7898;48.658;9.068;2022-07-18T03:32:45;12.50;99.90
15596;DHT22;7898;48.658;9.068;2022-07-18T03:35:13;12.50;99.90
15596;DHT22;7898;48.658;9.068;2022-07-18T03:37:40;12.50;99.90
15596;DHT22;7898;48.658;9.068;2022-07-18T03:40:10;12.50;99.90
15596;DHT22;7898;48.658;9.068;2022-07-18T03:42:37;12.50;99.90
15596;DHT22;7898;48.658;9.068;2022-07-18T03:45:05;12.40;99.90
15596;DHT22;7898;48.658;9.068;2022-07-18T03:47:32;12.50;99.90
15596;DHT22;7898;48.658;9.068;2022-07-18T03:49:59;12.50;99.90
15596;DHT22;7898;48.658;9.068;2022-07-18T03:52:26;12.50;99.90
15596;DHT22;7898;48.658;9.068;2022-07-18T03:54:53;12.50;99.90
15596;DHT22;7898;48.658;9.068;2022-07-18T03:57:21;12.50;99.90
15596;DHT22;7898;48.658;9.068;2022-07-18T03:59:48;12.40;99.90
15596;DHT22;7898;48.658;9.068;2022-07-18T04:02:15;12.30;99.90
15596;DHT22;7898;48.658;9.068;2022-07-18T04:04:42;12.10;99.90
15596;DHT22;7898;48.658;9.068;2022-07-18T04:07:10;12.10;99.90
15596;DHT22;7898;48.658;9.068;2022-07-18T04:09:37;12.10;99.90
15596;DHT22;7898;48.658;9.068;2022-07-18T04:12:05;12.20;99.90
15596;DHT22;7898;48.658;9.068;2022-07-18T04:14:34;12.20;99.90
15596;DHT22;7898;48.658;9.068;2022-07-18T04:17:01;12.20;99.90
15596;DHT22;7898;48.658;9.068;2022-07-18T04:19:31;12.20;99.90
15596;DHT22;7898;48.658;9.068;2022-07-18T04:21:59;12.10;99.90
15596;DHT22;7898;48.658;9.068;2022-07-18T04:24:26;12.20;99.90
15596;DHT22;7898;48.658;9.068;2022-07-18T04:26:53;12.20;99.90
15596;DHT22;7898;48.658;9.068;2022-07-18T04:29:20;12.20;99.90
15596;DHT22;7898;48.658;9.068;2022-07-18T04:31:48;12.20;99.90
15596;DHT22;7898;48.658;9.068;2022-07-18T04:34:15;12.30;99.90
15596;DHT22;7898;48.658;9.068;2022-07-18T04:36:45;12.40;99.90
15596;DHT22;7898;48.658;9.068;2022-07-18T04:39:13;12.40;99.90
15596;DHT22;7898;48.658;9.068;2022-07-18T04:41:40;12.50;99.90
15596;DHT22;7898;48.658;9.068;2022-07-18T04:44:07;12.60;99.90
15596;DHT22;7898;48.658;9.068;2022-07-18T04:46:35;12.80;99.90
15596;DHT22;7898;48.658;9.068;2022-07-18T04:49:03;12.90;99.90
15596;DHT22;7898;48.658;9.068;2022-07-18T04:51:30;13.00;99.90
15596;DHT22;7898;48.658;9.068;2022-07-18T04:53:57;13.10;99.90
15596;DHT22;7898;48.658;9.068;2022-07-18T04:56:24;13.30;99.90
15596;DHT22;7898;48.658;9.068;2022-07-18T04:58:51;13.30;99.90
15596;DHT22;7898;48.658;9.068;2022-07-18T05:01:18;13.40;99.90
15596;DHT22;7898;48.658;9.068;2022-07-18T05:03:45;13.50;99.90
15596;DHT22;7898;48.658;9.068;2022-07-18T05:06:13;13.60;99.90
15596;DHT22;7898;48.658;9.068;2022-07-18T05:08:42;13.70;99.90
15596;DHT22;7898;48.658;9.068;2022-07-18T05:11:09;13.80;99.90
15596;DHT22;7898;48.658;9.068;2022-07-18T05:13:35;13.80;99.90
15596;DHT22;7898;48.658;9.068;2022-07-18T05:16:03;14.10;99.90
15596;DHT22;7898;48.658;9.068;2022-07-18T05:18:30;14.20;99.90
15596;DHT22;7898;48.658;9.068;2022-07-18T05:20:57;14.30;99.90
15596;DHT22;7898;48.658;9.068;2022-07-18T05:23:25;14.40;99.90
15596;DHT22;7898;48.658;9.068;2022-07-18T05:25:52;14.50;99.90
15596;DHT22;7898;48.658;9.068;2022-07-18T05:28:19;14.60;99.90
15596;DHT22;7898;48.658;9.068;2022-07-18T05:30:46;14.80;99.90
15596;DHT22;7898;48.658;9.068;2022-07-18T05:33:12;14.90;99.90
15596;DHT22;7898;48.658;9.068;2022-07-18T05:35:40;15.00;99.90
15596;DHT22;7898;48.658;9.068;2022-07-18T05:38:07;15.20;99.90
15596;DHT22;7898;48.658;9.068;2022-07-18T05:40:35;15.30;99.90
15596;DHT22;7898;48.658;9.068;2022-07-18T05:43:02;15.40;99.90
15596;DHT22;7898;48.658;9.068;2022-07-18T05:45:29;15.60;99.90
15596;DHT22;7898;48.658;9.068;2022-07-18T05:47:56;15.80;99.90
15596;DHT22;7898;48.658;9.068;2022-07-18T05:50:24;16.00;99.90
15596;DHT22;7898;48.658;9.068;2022-07-18T05:52:51;16.20;99.90
15596;DHT22;7898;48.658;9.068;2022-07-18T05:55:18;16.40;99.90
15596;DHT22;7898;48.658;9.068;2022-07-18T05:57:47;16.60;99.90
15596;DHT22;7898;48.658;9.068;2022-07-18T06:00:16;16.90;99.90
15596;DHT22;7898;48.658;9.068;2022-07-18T06:02:43;17.00;99.90
15596;DHT22;7898;48.658;9.068;2022-07-18T06:05:11;17.20;99.90
15596;DHT22;7898;48.658;9.068;2022-07-18T06:07:38;17.40;99.90
15596;DHT22;7898;48.658;9.068;2022-07-18T06:10:06;17.60;99.90
15596;DHT22;7898;48.658;9.068;2022-07-18T06:12:33;17.80;99.90
15596;DHT22;7898;48.658;9.068;2022-07-18T06:15:01;18.10;99.90
15596;DHT22;7898;48.658;9.068;2022-07-18T06:17:28;18.30;99.90
15596;DHT22;7898;48.658;9.068;2022-07-18T06:19:56;18.40;99.90
15596;DHT22;7898;48.658;9.068;2022-07-18T06:22:23;18.60;99.90
15596;DHT22;7898;48.658;9.068;2022-07-18T06:24:50;18.80;99.90
15596;DHT22;7898;48.658;9.068;2022-07-18T06:27:17;19.00;99.90
15596;DHT22;7898;48.658;9.068;2022-07-18T06:29:44;19.30;99.90
15596;DHT22;7898;48.658;9.068;2022-07-18T06:32:12;19.50;99.90
15596;DHT22;7898;48.658;9.068;2022-07-18T06:34:39;19.60;99.90
15596;DHT22;7898;48.658;9.068;2022-07-18T06:37:06;19.80;99.90
15596;DHT22;7898;48.658;9.068;2022-07-18T06:39:33;20.00;99.90
15596;DHT22;7898;48.658;9.068;2022-07-18T06:42:00;20.20;99.90
15596;DHT22;7898;48.658;9.068;2022-07-18T06:44:27;20.40;99.90
15596;DHT22;7898;48.658;9.068;2022-07-18T06:46:54;20.70;99.90
15596;DHT22;7898;48.658;9.068;2022-07-18T06:49:24;20.90;99.90
15596;DHT22;7898;48.658;9.068;2022-07-18T06:51:51;21.10;99.90
15596;DHT22;7898;48.658;9.068;2022-07-18T06:54:21;21.40;99.90
15596;DHT22;7898;48.658;9.068;2022-07-18T06:56:53;21.60;99.90
15596;DHT22;7898;48.658;9.068;2022-07-18T06:59:20;22.00;99.90
15596;DHT22;7898;48.658;9.068;2022-07-18T07:01:47;22.40;99.60
15596;DHT22;7898;48.658;9.068;2022-07-18T07:04:14;22.80;99.70
15596;DHT22;7898;48.658;9.068;2022-07-18T07:06:42;23.30;99.80
15596;DHT22;7898;48.658;9.068;2022-07-18T07:09:09;23.80;98.90
15596;DHT22;7898;48.658;9.068;2022-07-18T07:11:36;24.30;98.40
15596;DHT22;7898;48.658;9.068;2022-07-18T07:14:03;24.70;97.80
15596;DHT22;7898;48.658;9.068;2022-07-18T07:16:31;25.20;96.10
15596;DHT22;7898;48.658;9.068;2022-07-18T07:18:58;25.50;96.10
15596;DHT22;7898;48.658;9.068;2022-07-18T07:21:26;25.80;95.30
15596;DHT22;7898;48.658;9.068;2022-07-18T07:23:54;26.10;95.40
15596;DHT22;7898;48.658;9.068;2022-07-18T07:26:21;26.30;94.10
15596;DHT22;7898;48.658;9.068;2022-07-18T07:28:48;26.40;93.80
15596;DHT22;7898;48.658;9.068;2022-07-18T07:31:15;26.70;93.80
15596;DHT22;7898;48.658;9.068;2022-07-18T07:33:41;26.70;93.60
15596;DHT22;7898;48.658;9.068;2022-07-18T07:36:10;27.00;93.10
15596;DHT22;7898;48.658;9.068;2022-07-18T07:38:37;27.30;92.40
15596;DHT22;7898;48.658;9.068;2022-07-18T07:41:05;27.60;92.20
15596;DHT22;7898;48.658;9.068;2022-07-18T07:43:32;27.60;91.70
15596;DHT22;7898;48.658;9.068;2022-07-18T07:46:01;27.70;91.40
15596;DHT22;7898;48.658;9.068;2022-07-18T07:48:28;27.90;91.00
15596;DHT22;7898;48.658;9.068;2022-07-18T07:50:55;27.90;91.70
15596;DHT22;7898;48.658;9.068;2022-07-18T07:53:23;27.90;92.00
15596;DHT22;7898;48.658;9.068;2022-07-18T07:55:50;27.90;91.80
15596;DHT22;7898;48.658;9.068;2022-07-18T07:58:18;28.00;91.60
15596;DHT22;7898;48.658;9.068;2022-07-18T08:00:45;28.10;91.10
15596;DHT22;7898;48.658;9.068;2022-07-18T08:03:12;28.10;90.40
15596;DHT22;7898;48.658;9.068;2022-07-18T08:05:44;28.20;90.60
15596;DHT22;7898;48.658;9.068;2022-07-18T08:08:12;28.10;91.30
15596;DHT22;7898;48.658;9.068;2022-07-18T08:10:39;28.40;91.50
15596;DHT22;7898;48.658;9.068;2022-07-18T08:13:06;28.40;91.20
15596;DHT22;7898;48.658;9.068;2022-07-18T08:15:34;28.30;90.60
15596;DHT22;7898;48.658;9.068;2022-07-18T08:18:02;28.20;88.60
15596;DHT22;7898;48.658;9.068;2022-07-18T08:20:29;28.10;87.70
15596;DHT22;7898;48.658;9.068;2022-07-18T08:23:02;27.90;90.30
15596;DHT22;7898;48.658;9.068;2022-07-18T08:25:31;27.90;89.60
15596;DHT22;7898;48.658;9.068;2022-07-18T08:27:59;27.80;90.20
15596;DHT22;7898;48.658;9.068;2022-07-18T08:30:27;27.90;90.90
15596;DHT22;7898;48.658;9.068;2022-07-18T08:32:58;28.10;90.10
15596;DHT22;7898;48.658;9.068;2022-07-18T08:35:26;28.20;88.20
15596;DHT22;7898;48.658;9.068;2022-07-18T08:37:53;28.20;91.00
15596;DHT22;7898;48.658;9.068;2022-07-18T08:40:20;28.30;90.10
15596;DHT22;7898;48.658;9.068;2022-07-18T08:42:50;28.50;90.20
15596;DHT22;7898;48.658;9.068;2022-07-18T08:45:20;28.80;90.10
15596;DHT22;7898;48.658;9.068;2022-07-18T08:47:47;28.90;84.20
15596;DHT22;7898;48.658;9.068;2022-07-18T08:50:17;28.60;82.40
15596;DHT22;7898;48.658;9.068;2022-07-18T08:52:45;28.40;83.00
15596;DHT22;7898;48.658;9.068;2022-07-18T08:55:12;28.40;83.70
15596;DHT22;7898;48.658;9.068;2022-07-18T08:57:40;28.50;85.00
15596;DHT22;7898;48.658;9.068;2022-07-18T09:00:08;28.40;82.10
15596;DHT22;7898;48.658;9.068;2022-07-18T09:02:36;28.50;82.70
15596;DHT22;7898;48.658;9.068;2022-07-18T09:05:04;28.60;83.40
15596;DHT22;7898;48.658;9.068;2022-07-18T09:07:34;28.80;82.60
15596;DHT22;7898;48.658;9.068;2022-07-18T09:10:04;28.90;83.00
15596;DHT22;7898;48.658;9.068;2022-07-18T09:12:31;29.20;84.40
15596;DHT22;7898;48.658;9.068;2022-07-18T09:15:04;29.30;80.10
15596;DHT22;7898;48.658;9.068;2022-07-18T09:17:33;29.40;82.10
15596;DHT22;7898;48.658;9.068;2022-07-18T09:20:05;29.60;80.90
15596;DHT22;7898;48.658;9.068;2022-07-18T09:22:35;29.70;82.10
15596;DHT22;7898;48.658;9.068;2022-07-18T09:25:06;29.80;82.70
15596;DHT22;7898;48.658;9.068;2022-07-18T09:27:37;29.90;83.20
15596;DHT22;7898;48.658;9.068;2022-07-18T09:30:13;29.90;81.80
15596;DHT22;7898;48.658;9.068;2022-07-18T09:32:46;30.10;80.00
15596;DHT22;7898;48.658;9.068;2022-07-18T09:35:14;29.90;79.40
15596;DHT22;7898;48.658;9.068;2022-07-18T09:38:03;29.90;79.80
15596;DHT22;7898;48.658;9.068;2022-07-18T09:40:38;29.90;82.40
15596;DHT22;7898;48.658;9.068;2022-07-18T09:43:06;29.90;77.80
15596;DHT22;7898;48.658;9.068;2022-07-18T09:45:35;29.70;80.00
15596;DHT22;7898;48.658;9.068;2022-07-18T09:48:04;29.80;82.00
15596;DHT22;7898;48.658;9.068;2022-07-18T09:50:33;30.00;81.70
15596;DHT22;7898;48.658;9.068;2022-07-18T09:53:10;30.10;78.70
15596;DHT22;7898;48.658;9.068;2022-07-18T09:55:45;30.10;77.50
15596;DHT22;7898;48.658;9.068;2022-07-18T09:58:15;30.20;76.50
15596;DHT22;7898;48.658;9.068;2022-07-18T10:00:42;30.20;79.30
15596;DHT22;7898;48.658;9.068;2022-07-18T10:03:09;30.20;78.50
15596;DHT22;7898;48.658;9.068;2022-07-18T10:05:38;30.10;75.20
15596;DHT22;7898;48.658;9.068;2022-07-18T10:08:08;30.10;75.90
15596;DHT22;7898;48.658;9.068;2022-07-18T10:10:37;30.00;78.20
15596;DHT22;7898;48.658;9.068;2022-07-18T10:13:05;30.10;78.20
15596;DHT22;7898;48.658;9.068;2022-07-18T10:15:34;30.20;75.20
15596;DHT22;7898;48.658;9.068;2022-07-18T10:18:02;30.40;77.60
15596;DHT22;7898;48.658;9.068;2022-07-18T10:20:36;30.40;73.20
15596;DHT22;7898;48.658;9.068;2022-07-18T10:23:19;30.30;76.00
15596;DHT22;7898;48.658;9.068;2022-07-18T10:26:10;30.40;76.80
15596;DHT22;7898;48.658;9.068;2022-07-18T10:29:14;30.30;73.20
15596;DHT22;7898;48.658;9.068;2022-07-18T10:32:01;30.30;76.50
15596;DHT22;7898;48.658;9.068;2022-07-18T10:34:32;30.30;75.80
15596;DHT22;7898;48.658;9.068;2022-07-18T10:37:10;30.20;76.40
15596;DHT22;7898;48.658;9.068;2022-07-18T10:39:39;30.30;75.40
15596;DHT22;7898;48.658;9.068;2022-07-18T10:42:21;30.30;74.00
15596;DHT22;7898;48.658;9.068;2022-07-18T10:44:50;30.30;73.40
15596;DHT22;7898;48.658;9.068;2022-07-18T10:47:19;30.40;74.10
15596;DHT22;7898;48.658;9.068;2022-07-18T10:50:06;30.40;74.40
15596;DHT22;7898;48.658;9.068;2022-07-18T10:52:55;30.50;72.50
15596;DHT22;7898;48.658;9.068;2022-07-18T10:55:32;30.40;71.80
15596;DHT22;7898;48.658;9.068;2022-07-18T10:58:18;30.40;72.00
15596;DHT22;7898;48.658;9.068;2022-07-18T11:00:50;30.30;71.10
15596;DHT22;7898;48.658;9.068;2022-07-18T11:03:25;30.20;74.20
15596;DHT22;7898;48.658;9.068;2022-07-18T11:05:53;30.30;75.30
15596;DHT22;7898;48.658;9.068;2022-07-18T11:08:22;30.40;74.30
15596;DHT22;7898;48.658;9.068;2022-07-18T11:11:05;30.40;72.30
15596;DHT22;7898;48.658;9.068;2022-07-18T11:13:34;30.00;71.50
15596;DHT22;7898;48.658;9.068;2022-07-18T11:16:03;30.00;75.60
15596;DHT22;7898;48.658;9.068;2022-07-18T11:18:33;30.00;75.80
15596;DHT22;7898;48.658;9.068;2022-07-18T11:21:01;30.10;74.10
15596;DHT22;7898;48.658;9.068;2022-07-18T11:23:30;30.10;73.10
15596;DHT22;7898;48.658;9.068;2022-07-18T11:25:57;30.10;73.30
15596;DHT22;7898;48.658;9.068;2022-07-18T11:28:27;30.20;74.20
15596;DHT22;7898;48.658;9.068;2022-07-18T11:31:03;30.30;73.80
15596;DHT22;7898;48.658;9.068;2022-07-18T11:33:33;30.40;73.00
15596;DHT22;7898;48.658;9.068;2022-07-18T11:36:04;30.30;72.80
15596;DHT22;7898;48.658;9.068;2022-07-18T11:38:32;30.50;70.90
15596;DHT22;7898;48.658;9.068;2022-07-18T11:41:03;30.50;72.30
15596;DHT22;7898;48.658;9.068;2022-07-18T11:43:32;30.60;73.20
15596;DHT22;7898;48.658;9.068;2022-07-18T11:46:03;30.60;68.80
15596;DHT22;7898;48.658;9.068;2022-07-18T11:48:30;30.50;68.00
15596;DHT22;7898;48.658;9.068;2022-07-18T11:50:59;30.50;71.80
15596;DHT22;7898;48.658;9.068;2022-07-18T11:53:26;30.50;66.40
15596;DHT22;7898;48.658;9.068;2022-07-18T11:55:54;30.40;68.10
15596;DHT22;7898;48.658;9.068;2022-07-18T11:58:23;30.50;70.30
15596;DHT22;7898;48.658;9.068;2022-07-18T12:00:58;30.60;68.60
15596;DHT22;7898;48.658;9.068;2022-07-18T12:03:25;30.60;68.40
15596;DHT22;7898;48.658;9.068;2022-07-18T12:05:53;30.60;69.90
15596;DHT22;7898;48.658;9.068;2022-07-18T12:08:34;30.70;71.00
15596;DHT22;7898;48.658;9.068;2022-07-18T12:11:25;30.80;69.90
15596;DHT22;7898;48.658;9.068;2022-07-18T12:13:54;30.90;68.50
15596;DHT22;7898;48.658;9.068;2022-07-18T12:16:33;30.90;70.60
15596;DHT22;7898;48.658;9.068;2022-07-18T12:19:03;31.10;70.70
15596;DHT22;7898;48.658;9.068;2022-07-18T12:21:48;31.20;68.90
15596;DHT22;7898;48.658;9.068;2022-07-18T12:24:24;31.30;69.70
15596;DHT22;7898;48.658;9.068;2022-07-18T12:27:18;31.30;69.70
15596;DHT22;7898;48.658;9.068;2022-07-18T12:30:00;31.40;67.80
15596;DHT22;7898;48.658;9.068;2022-07-18T12:32:41;31.40;70.60
15596;DHT22;7898;48.658;9.068;2022-07-18T12:35:11;31.50;70.90
15596;DHT22;7898;48.658;9.068;2022-07-18T12:37:38;31.50;69.70
15596;DHT22;7898;48.658;9.068;2022-07-18T12:40:07;31.50;68.80
15596;DHT22;7898;48.658;9.068;2022-07-18T12:42:36;31.50;67.80
15596;DHT22;7898;48.658;9.068;2022-07-18T12:45:07;31.60;70.30
15596;DHT22;7898;48.658;9.068;2022-07-18T12:47:36;31.70;68.00
15596;DHT22;7898;48.658;9.068;2022-07-18T12:50:05;31.70;66.70
15596;DHT22;7898;48.658;9.068;2022-07-18T12:52:33;31.60;68.10
15596;DHT22;7898;48.658;9.068;2022-07-18T12:55:02;31.50;68.20
15596;DHT22;7898;48.658;9.068;2022-07-18T12:57:29;31.30;67.20
15596;DHT22;7898;48.658;9.068;2022-07-18T12:59:56;31.40;70.70
15596;DHT22;7898;48.658;9.068;2022-07-18T13:02:23;31.40;67.40
15596;DHT22;7898;48.658;9.068;2022-07-18T13:04:52;31.50;69.40
15596;DHT22;7898;48.658;9.068;2022-07-18T13:07:19;31.60;69.30
15596;DHT22;7898;48.658;9.068;2022-07-18T13:09:46;31.80;70.40
15596;DHT22;7898;48.658;9.068;2022-07-18T13:12:13;32.00;72.50
15596;DHT22;7898;48.658;9.068;2022-07-18T13:14:41;32.20;69.50
15596;DHT22;7898;48.658;9.068;2022-07-18T13:17:08;32.30;69.60
15596;DHT22;7898;48.658;9.068;2022-07-18T13:19:35;32.20;70.30
15596;DHT22;7898;48.658;9.068;2022-07-18T13:22:03;32.20;68.30
15596;DHT22;7898;48.658;9.068;2022-07-18T13:24:31;32.00;67.00
15596;DHT22;7898;48.658;9.068;2022-07-18T13:26:58;31.90;66.70
15596;DHT22;7898;48.658;9.068;2022-07-18T13:29:25;31.90;68.60
15596;DHT22;7898;48.658;9.068;2022-07-18T13:31:52;32.10;69.90
15596;DHT22;7898;48.658;9.068;2022-07-18T13:34:20;32.30;70.30
15596;DHT22;7898;48.658;9.068;2022-07-18T13:36:53;32.50;68.50
15596;DHT22;7898;48.658;9.068;2022-07-18T13:39:22;32.60;67.40
15596;DHT22;7898;48.658;9.068;2022-07-18T13:41:50;32.80;68.50
15596;DHT22;7898;48.658;9.068;2022-07-18T13:44:19;33.10;67.40
15596;DHT22;7898;48.658;9.068;2022-07-18T13:46:46;33.10;64.80
15596;DHT22;7898;48.658;9.068;2022-07-18T13:49:13;33.20;64.80
15596;DHT22;7898;48.658;9.068;2022-07-18T13:51:41;33.20;64.30
15596;DHT22;7898;48.658;9.068;2022-07-18T13:54:09;33.30;66.60
15596;DHT22;7898;48.658;9.068;2022-07-18T13:56:37;33.10;66.30
15596;DHT22;7898;48.658;9.068;2022-07-18T13:59:07;32.90;67.00
15596;DHT22;7898;48.658;9.068;2022-07-18T14:01:34;33.10;69.50
15596;DHT22;7898;48.658;9.068;2022-07-18T14:04:01;33.20;67.60
15596;DHT22;7898;48.658;9.068;2022-07-18T14:06:28;33.70;68.00
15596;DHT22;7898;48.658;9.068;2022-07-18T14:08:55;34.30;65.00
15596;DHT22;7898;48.658;9.068;2022-07-18T14:11:22;34.50;65.40
15596;DHT22;7898;48.658;9.068;2022-07-18T14:13:50;34.80;65.70
15596;DHT22;7898;48.658;9.068;2022-07-18T14:16:19;35.10;66.60
15596;DHT22;7898;48.658;9.068;2022-07-18T14:18:46;35.50;64.20
15596;DHT22;7898;48.658;9.068;2022-07-18T14:21:15;35.60;65.70
15596;DHT22;7898;48.658;9.068;2022-07-18T14:23:42;35.70;62.40
15596;DHT22;7898;48.658;9.068;2022-07-18T14:26:09;35.50;61.80
15596;DHT22;7898;48.658;9.068;2022-07-18T14:28:36;35.10;62.20
15596;DHT22;7898;48.658;9.068;2022-07-18T14:31:05;35.10;62.50
15596;DHT22;7898;48.658;9.068;2022-07-18T14:33:32;35.00;61.00
15596;DHT22;7898;48.658;9.068;2022-07-18T14:35:59;35.00;63.70
15596;DHT22;7898;48.658;9.068;2022-07-18T14:38:26;35.00;60.50
15596;DHT22;7898;48.658;9.068;2022-07-18T14:40:53;35.20;61.10
15596;DHT22;7898;48.658;9.068;2022-07-18T14:43:21;35.20;63.80
15596;DHT22;7898;48.658;9.068;2022-07-18T14:45:48;35.40;62.70
15596;DHT22;7898;48.658;9.068;2022-07-18T14:48:19;35.70;60.10
15596;DHT22;7898;48.658;9.068;2022-07-18T14:50:48;35.40;60.80
15596;DHT22;7898;48.658;9.068;2022-07-18T14:53:15;35.50;61.70
15596;DHT22;7898;48.658;9.068;2022-07-18T14:55:42;35.60;60.10
15596;DHT22;7898;48.658;9.068;2022-07-18T14:58:13;35.70;58.60
15596;DHT22;7898;48.658;9.068;2022-07-18T15:00:40;36.10;59.10
15596;DHT22;7898;48.658;9.068;2022-07-18T15:03:07;36.50;58.80
15596;DHT22;7898;48.658;9.068;2022-07-18T15:05:35;37.00;57.70
15596;DHT22;7898;48.658;9.068;2022-07-18T15:08:05;36.70;57.80
15596;DHT22;7898;48.658;9.068;2022-07-18T15:10:35;36.30;58.80
15596;DHT22;7898;48.658;9.068;2022-07-18T15:13:02;36.20;59.20
15596;DHT22;7898;48.658;9.068;2022-07-18T15:15:29;36.80;59.70
15596;DHT22;7898;48.658;9.068;2022-07-18T15:17:56;36.80;57.30
15596;DHT22;7898;48.658;9.068;2022-07-18T15:20:23;36.60;57.50
15596;DHT22;7898;48.658;9.068;2022-07-18T15:22:52;37.20;60.10
15596;DHT22;7898;48.658;9.068;2022-07-18T15:25:19;38.10;57.20
15596;DHT22;7898;48.658;9.068;2022-07-18T15:27:46;39.00;59.10
15596;DHT22;7898;48.658;9.068;2022-07-18T15:30:13;39.50;56.70
15596;DHT22;7898;48.658;9.068;2022-07-18T15:32:41;39.90;57.20
15596;DHT22;7898;48.658;9.068;2022-07-18T15:35:08;40.00;55.30
15596;DHT22;7898;48.658;9.068;2022-07-18T15:37:35;40.00;56.80
15596;DHT22;7898;48.658;9.068;2022-07-18T15:40:04;39.90;55.10
15596;DHT22;7898;48.658;9.068;2022-07-18T15:42:31;39.80;57.30
15596;DHT22;7898;48.658;9.068;2022-07-18T15:44:58;39.40;56.50
15596;DHT22;7898;48.658;9.068;2022-07-18T15:47:27;39.10;57.30
15596;DHT22;7898;48.658;9.068;2022-07-18T15:49:56;38.70;56.10
15596;DHT22;7898;48.658;9.068;2022-07-18T15:52:23;38.30;58.10
15596;DHT22;7898;48.658;9.068;2022-07-18T15:54:50;38.20;58.10